sensor_id;sensor_type;location;lat;lon;timestamp;P1;durP1;ratioP1;P2;durP2;ratioP2
13461;SDS011;6803;45.264;5.468;2022-09-23T00:02:16;3.70;;;2.27;;
13461;SDS011;6803;45.264;5.468;2022-09-23T00:04:47;3.93;;;2.43;;
13461;SDS011;6803;45.264;5.468;2022-09-23T00:07:18;2.80;;;2.33;;
13461;SDS011;6803;45.264;5.468;2022-09-23T00:09:49;3.60;;;2.43;;
13461;SDS011;6803;45.264;5.468;2022-09-23T00:12:19;4.07;;;2.20;;
13461;SDS011;6803;45.264;5.468;2022-09-23T00:14:50;6.07;;;2.30;;
13461;SDS011;6803;45.264;5.468;2022-09-23T00:17:21;5.03;;;2.10;;
13461;SDS011;6803;45.264;5.468;2022-09-23T00:19:51;2.60;;;2.40;;
13461;SDS011;6803;45.264;5.468;2022-09-23T00:22:22;9.10;;;2.30;;
13461;SDS011;6803;45.264;5.468;2022-09-23T00:24:53;4.10;;;2.43;;
13461;SDS011;6803;45.264;5.468;2022-09-23T00:27:23;2.77;;;2.33;;
13461;SDS011;6803;45.264;5.468;2022-09-23T00:29:54;3.83;;;2.10;;
13461;SDS011;6803;45.264;5.468;2022-09-23T00:32:25;4.03;;;2.30;;
13461;SDS011;6803;45.264;5.468;2022-09-23T00:34:55;2.40;;;2.20;;
13461;SDS011;6803;45.264;5.468;2022-09-23T00:37:27;5.97;;;1.97;;
13461;SDS011;6803;45.264;5.468;2022-09-23T00:39:58;3.83;;;2.50;;
13461;SDS011;6803;45.264;5.468;2022-09-23T00:42:29;3.00;;;2.70;;
13461;SDS011;6803;45.264;5.468;2022-09-23T00:45:00;5.37;;;2.20;;
13461;SDS011;6803;45.264;5.468;2022-09-23T00:47:33;3.40;;;2.20;;
13461;SDS011;6803;45.264;5.468;2022-09-23T00:50:06;5.43;;;2.27;;
13461;SDS011;6803;45.264;5.468;2022-09-23T00:52:39;6.23;;;2.13;;
13461;SDS011;6803;45.264;5.468;2022-09-23T00:55:11;4.30;;;2.20;;
13461;SDS011;6803;45.264;5.468;2022-09-23T00:57:44;3.37;;;2.33;;
13461;SDS011;6803;45.264;5.468;2022-09-23T01:00:15;6.67;;;2.47;;
13461;SDS011;6803;45.264;5.468;2022-09-23T01:02:46;3.30;;;2.53;;
13461;SDS011;6803;45.264;5.468;2022-09-23T01:05:17;2.90;;;2.60;;
13461;SDS011;6803;45.264;5.468;2022-09-23T01:07:49;3.83;;;2.33;;
13461;SDS011;6803;45.264;5.468;2022-09-23T01:13:13;3.00;;;2.30;;
13461;SDS011;6803;45.264;5.468;2022-09-23T01:15:47;4.83;;;2.77;;
13461;SDS011;6803;45.264;5.468;2022-09-23T01:18:26;3.17;;;2.20;;
13461;SDS011;6803;45.264;5.468;2022-09-23T01:20:57;3.27;;;2.20;;
13461;SDS011;6803;45.264;5.468;2022-09-23T01:24:02;2.27;;;2.03;;
13461;SDS011;6803;45.264;5.468;2022-09-23T01:26:55;2.97;;;2.23;;
13461;SDS011;6803;45.264;5.468;2022-09-23T01:29:57;4.03;;;2.03;;
13461;SDS011;6803;45.264;5.468;2022-09-23T01:32:39;6.00;;;2.20;;
13461;SDS011;6803;45.264;5.468;2022-09-23T01:35:51;4.07;;;2.17;;
13461;SDS011;6803;45.264;5.468;2022-09-23T01:38:32;4.27;;;2.47;;
13461;SDS011;6803;45.264;5.468;2022-09-23T01:41:10;3.93;;;2.47;;
13461;SDS011;6803;45.264;5.468;2022-09-23T01:43:56;3.63;;;2.60;;
13461;SDS011;6803;45.264;5.468;2022-09-23T01:46:30;2.17;;;1.97;;
13461;SDS011;6803;45.264;5.468;2022-09-23T01:49:05;4.97;;;2.20;;
13461;SDS011;6803;45.264;5.468;2022-09-23T01:51:37;5.17;;;2.40;;
13461;SDS011;6803;45.264;5.468;2022-09-23T01:54:11;5.87;;;2.67;;
13461;SDS011;6803;45.264;5.468;2022-09-23T01:56:45;3.33;;;2.40;;
13461;SDS011;6803;45.264;5.468;2022-09-23T01:59:19;4.57;;;2.70;;
13461;SDS011;6803;45.264;5.468;2022-09-23T02:01:54;5.23;;;2.90;;
13461;SDS011;6803;45.264;5.468;2022-09-23T02:04:28;4.27;;;2.70;;
13461;SDS011;6803;45.264;5.468;2022-09-23T02:07:04;5.57;;;2.87;;
13461;SDS011;6803;45.264;5.468;2022-09-23T02:09:38;3.70;;;2.97;;
13461;SDS011;6803;45.264;5.468;2022-09-23T02:12:12;3.97;;;2.60;;
13461;SDS011;6803;45.264;5.468;2022-09-23T02:14:45;4.50;;;2.83;;
13461;SDS011;6803;45.264;5.468;2022-09-23T02:17:21;4.73;;;2.40;;
13461;SDS011;6803;45.264;5.468;2022-09-23T02:19:54;4.80;;;2.97;;
13461;SDS011;6803;45.264;5.468;2022-09-23T02:22:28;6.93;;;2.87;;
13461;SDS011;6803;45.264;5.468;2022-09-23T02:25:03;6.53;;;2.50;;
13461;SDS011;6803;45.264;5.468;2022-09-23T02:27:38;4.80;;;2.50;;
13461;SDS011;6803;45.264;5.468;2022-09-23T02:30:10;4.07;;;2.67;;
13461;SDS011;6803;45.264;5.468;2022-09-23T02:32:46;5.07;;;2.90;;
13461;SDS011;6803;45.264;5.468;2022-09-23T02:35:21;3.17;;;2.43;;
13461;SDS011;6803;45.264;5.468;2022-09-23T02:37:57;7.43;;;2.90;;
13461;SDS011;6803;45.264;5.468;2022-09-23T02:40:33;6.47;;;2.50;;
13461;SDS011;6803;45.264;5.468;2022-09-23T02:43:07;5.07;;;2.63;;
13461;SDS011;6803;45.264;5.468;2022-09-23T02:45:37;2.93;;;2.27;;
13461;SDS011;6803;45.264;5.468;2022-09-23T02:48:08;5.27;;;2.77;;
13461;SDS011;6803;45.264;5.468;2022-09-23T02:50:38;6.63;;;3.00;;
13461;SDS011;6803;45.264;5.468;2022-09-23T02:53:08;5.53;;;2.80;;
13461;SDS011;6803;45.264;5.468;2022-09-23T02:55:38;6.20;;;2.77;;
13461;SDS011;6803;45.264;5.468;2022-09-23T02:58:08;3.17;;;2.60;;
13461;SDS011;6803;45.264;5.468;2022-09-23T03:00:42;3.67;;;2.67;;
13461;SDS011;6803;45.264;5.468;2022-09-23T03:03:25;3.80;;;2.40;;
13461;SDS011;6803;45.264;5.468;2022-09-23T03:05:55;5.10;;;2.73;;
13461;SDS011;6803;45.264;5.468;2022-09-23T03:08:31;9.47;;;3.00;;
13461;SDS011;6803;45.264;5.468;2022-09-23T03:11:06;3.17;;;2.47;;
13461;SDS011;6803;45.264;5.468;2022-09-23T03:13:41;3.40;;;2.80;;
13461;SDS011;6803;45.264;5.468;2022-09-23T03:16:23;3.27;;;2.97;;
13461;SDS011;6803;45.264;5.468;2022-09-23T03:18:58;5.73;;;3.00;;
13461;SDS011;6803;45.264;5.468;2022-09-23T03:21:32;5.33;;;2.80;;
13461;SDS011;6803;45.264;5.468;2022-09-23T03:24:06;5.10;;;3.00;;
13461;SDS011;6803;45.264;5.468;2022-09-23T03:26:42;5.17;;;2.87;;
13461;SDS011;6803;45.264;5.468;2022-09-23T03:29:14;3.37;;;2.80;;
13461;SDS011;6803;45.264;5.468;2022-09-23T03:31:47;6.83;;;2.87;;
13461;SDS011;6803;45.264;5.468;2022-09-23T03:34:18;3.70;;;2.93;;
13461;SDS011;6803;45.264;5.468;2022-09-23T03:36:52;4.27;;;2.93;;
13461;SDS011;6803;45.264;5.468;2022-09-23T03:39:32;3.80;;;2.60;;
13461;SDS011;6803;45.264;5.468;2022-09-23T03:42:07;3.10;;;2.70;;
13461;SDS011;6803;45.264;5.468;2022-09-23T03:44:42;4.07;;;2.60;;
13461;SDS011;6803;45.264;5.468;2022-09-23T03:47:14;3.60;;;2.73;;
13461;SDS011;6803;45.264;5.468;2022-09-23T03:49:46;6.80;;;3.10;;
13461;SDS011;6803;45.264;5.468;2022-09-23T03:52:19;5.20;;;3.10;;
13461;SDS011;6803;45.264;5.468;2022-09-23T03:54:52;4.80;;;2.60;;
13461;SDS011;6803;45.264;5.468;2022-09-23T04:00:13;3.60;;;2.73;;
13461;SDS011;6803;45.264;5.468;2022-09-23T04:02:45;5.23;;;2.90;;
13461;SDS011;6803;45.264;5.468;2022-09-23T04:05:16;3.43;;;2.60;;
13461;SDS011;6803;45.264;5.468;2022-09-23T04:07:48;4.00;;;2.57;;
13461;SDS011;6803;45.264;5.468;2022-09-23T04:10:19;3.27;;;2.93;;
13461;SDS011;6803;45.264;5.468;2022-09-23T04:12:50;5.87;;;3.03;;
13461;SDS011;6803;45.264;5.468;2022-09-23T04:15:21;4.47;;;3.10;;
13461;SDS011;6803;45.264;5.468;2022-09-23T04:17:52;3.20;;;2.83;;
13461;SDS011;6803;45.264;5.468;2022-09-23T04:20:23;3.83;;;2.30;;
13461;SDS011;6803;45.264;5.468;2022-09-23T04:22:55;3.90;;;3.00;;
13461;SDS011;6803;45.264;5.468;2022-09-23T04:25:26;7.37;;;2.97;;
13461;SDS011;6803;45.264;5.468;2022-09-23T04:27:58;5.87;;;2.50;;
13461;SDS011;6803;45.264;5.468;2022-09-23T04:30:30;4.80;;;3.10;;
13461;SDS011;6803;45.264;5.468;2022-09-23T04:33:00;5.10;;;2.73;;
13461;SDS011;6803;45.264;5.468;2022-09-23T04:35:31;4.30;;;2.87;;
13461;SDS011;6803;45.264;5.468;2022-09-23T04:38:04;3.70;;;2.83;;
13461;SDS011;6803;45.264;5.468;2022-09-23T04:40:36;5.70;;;3.23;;
13461;SDS011;6803;45.264;5.468;2022-09-23T04:43:08;6.57;;;3.00;;
13461;SDS011;6803;45.264;5.468;2022-09-23T04:45:40;5.30;;;2.57;;
13461;SDS011;6803;45.264;5.468;2022-09-23T04:48:11;2.93;;;2.60;;
13461;SDS011;6803;45.264;5.468;2022-09-23T04:50:43;3.20;;;2.60;;
13461;SDS011;6803;45.264;5.468;2022-09-23T04:53:15;3.03;;;2.50;;
13461;SDS011;6803;45.264;5.468;2022-09-23T04:55:46;4.07;;;2.40;;
13461;SDS011;6803;45.264;5.468;2022-09-23T04:58:19;3.97;;;3.10;;
13461;SDS011;6803;45.264;5.468;2022-09-23T05:00:51;8.07;;;3.10;;
13461;SDS011;6803;45.264;5.468;2022-09-23T05:03:26;3.70;;;3.00;;
13461;SDS011;6803;45.264;5.468;2022-09-23T05:05:57;6.27;;;3.00;;
13461;SDS011;6803;45.264;5.468;2022-09-23T05:08:29;3.57;;;2.80;;
13461;SDS011;6803;45.264;5.468;2022-09-23T05:11:00;5.63;;;3.30;;
13461;SDS011;6803;45.264;5.468;2022-09-23T05:13:32;4.47;;;3.00;;
13461;SDS011;6803;45.264;5.468;2022-09-23T05:16:05;3.73;;;2.80;;
13461;SDS011;6803;45.264;5.468;2022-09-23T05:18:39;3.33;;;2.90;;
13461;SDS011;6803;45.264;5.468;2022-09-23T05:21:13;8.70;;;3.57;;
13461;SDS011;6803;45.264;5.468;2022-09-23T05:23:46;5.43;;;2.80;;
13461;SDS011;6803;45.264;5.468;2022-09-23T05:26:19;5.87;;;2.93;;
13461;SDS011;6803;45.264;5.468;2022-09-23T05:28:52;3.33;;;2.87;;
13461;SDS011;6803;45.264;5.468;2022-09-23T05:34:01;3.80;;;3.00;;
13461;SDS011;6803;45.264;5.468;2022-09-23T05:36:36;4.63;;;2.80;;
13461;SDS011;6803;45.264;5.468;2022-09-23T05:39:09;3.00;;;2.70;;
13461;SDS011;6803;45.264;5.468;2022-09-23T05:41:40;3.70;;;2.93;;
13461;SDS011;6803;45.264;5.468;2022-09-23T05:44:13;6.93;;;3.13;;
13461;SDS011;6803;45.264;5.468;2022-09-23T05:46:45;4.57;;;3.40;;
13461;SDS011;6803;45.264;5.468;2022-09-23T05:49:16;5.07;;;3.10;;
13461;SDS011;6803;45.264;5.468;2022-09-23T05:51:47;4.10;;;2.93;;
13461;SDS011;6803;45.264;5.468;2022-09-23T05:54:17;7.30;;;3.57;;
13461;SDS011;6803;45.264;5.468;2022-09-23T05:56:48;5.03;;;3.23;;
13461;SDS011;6803;45.264;5.468;2022-09-23T05:59:19;6.23;;;3.50;;
13461;SDS011;6803;45.264;5.468;2022-09-23T06:01:49;3.70;;;3.30;;
13461;SDS011;6803;45.264;5.468;2022-09-23T06:04:22;5.20;;;3.03;;
13461;SDS011;6803;45.264;5.468;2022-09-23T06:06:52;4.73;;;3.27;;
13461;SDS011;6803;45.264;5.468;2022-09-23T06:09:26;3.43;;;3.10;;
13461;SDS011;6803;45.264;5.468;2022-09-23T06:11:58;7.87;;;3.17;;
13461;SDS011;6803;45.264;5.468;2022-09-23T06:14:30;7.00;;;2.90;;
13461;SDS011;6803;45.264;5.468;2022-09-23T06:17:01;10.20;;;3.60;;
13461;SDS011;6803;45.264;5.468;2022-09-23T06:19:32;3.10;;;2.77;;
13461;SDS011;6803;45.264;5.468;2022-09-23T06:22:03;4.77;;;3.00;;
13461;SDS011;6803;45.264;5.468;2022-09-23T06:24:34;5.23;;;3.20;;
13461;SDS011;6803;45.264;5.468;2022-09-23T06:27:05;7.20;;;2.80;;
13461;SDS011;6803;45.264;5.468;2022-09-23T06:29:37;6.57;;;3.27;;
13461;SDS011;6803;45.264;5.468;2022-09-23T06:32:08;3.50;;;2.70;;
13461;SDS011;6803;45.264;5.468;2022-09-23T06:34:39;6.63;;;3.60;;
13461;SDS011;6803;45.264;5.468;2022-09-23T06:37:13;5.03;;;3.17;;
13461;SDS011;6803;45.264;5.468;2022-09-23T06:39:47;3.97;;;3.00;;
13461;SDS011;6803;45.264;5.468;2022-09-23T06:42:19;6.20;;;3.13;;
13461;SDS011;6803;45.264;5.468;2022-09-23T06:44:50;5.80;;;3.23;;
13461;SDS011;6803;45.264;5.468;2022-09-23T06:47:21;4.47;;;2.97;;
13461;SDS011;6803;45.264;5.468;2022-09-23T06:49:51;4.73;;;3.20;;
13461;SDS011;6803;45.264;5.468;2022-09-23T06:52:22;3.97;;;2.93;;
13461;SDS011;6803;45.264;5.468;2022-09-23T06:54:53;5.70;;;3.40;;
13461;SDS011;6803;45.264;5.468;2022-09-23T06:57:24;5.23;;;2.60;;
13461;SDS011;6803;45.264;5.468;2022-09-23T06:59:56;4.27;;;3.10;;
13461;SDS011;6803;45.264;5.468;2022-09-23T07:02:26;3.73;;;3.13;;
13461;SDS011;6803;45.264;5.468;2022-09-23T07:04:57;6.27;;;3.20;;
13461;SDS011;6803;45.264;5.468;2022-09-23T07:07:29;4.10;;;2.97;;
13461;SDS011;6803;45.264;5.468;2022-09-23T07:10:02;4.33;;;3.43;;
13461;SDS011;6803;45.264;5.468;2022-09-23T07:12:34;4.07;;;3.00;;
13461;SDS011;6803;45.264;5.468;2022-09-23T07:15:06;4.73;;;3.17;;
13461;SDS011;6803;45.264;5.468;2022-09-23T07:17:40;4.80;;;3.10;;
13461;SDS011;6803;45.264;5.468;2022-09-23T07:20:11;5.87;;;3.40;;
13461;SDS011;6803;45.264;5.468;2022-09-23T07:22:48;6.43;;;3.80;;
13461;SDS011;6803;45.264;5.468;2022-09-23T07:25:19;6.20;;;3.03;;
13461;SDS011;6803;45.264;5.468;2022-09-23T07:27:50;6.43;;;3.20;;
13461;SDS011;6803;45.264;5.468;2022-09-23T07:30:23;5.07;;;3.30;;
13461;SDS011;6803;45.264;5.468;2022-09-23T07:32:53;4.90;;;3.23;;
13461;SDS011;6803;45.264;5.468;2022-09-23T07:35:24;4.93;;;2.70;;
13461;SDS011;6803;45.264;5.468;2022-09-23T07:37:55;5.53;;;3.70;;
13461;SDS011;6803;45.264;5.468;2022-09-23T07:40:26;7.47;;;3.60;;
13461;SDS011;6803;45.264;5.468;2022-09-23T07:42:58;5.77;;;2.83;;
13461;SDS011;6803;45.264;5.468;2022-09-23T07:45:31;6.27;;;3.17;;
13461;SDS011;6803;45.264;5.468;2022-09-23T07:48:02;10.17;;;3.40;;
13461;SDS011;6803;45.264;5.468;2022-09-23T07:50:34;3.93;;;2.53;;
13461;SDS011;6803;45.264;5.468;2022-09-23T07:53:06;4.43;;;3.00;;
13461;SDS011;6803;45.264;5.468;2022-09-23T07:55:39;4.90;;;2.80;;
13461;SDS011;6803;45.264;5.468;2022-09-23T07:58:11;4.77;;;3.07;;
13461;SDS011;6803;45.264;5.468;2022-09-23T08:00:42;4.57;;;2.80;;
13461;SDS011;6803;45.264;5.468;2022-09-23T08:03:13;2.93;;;2.63;;
13461;SDS011;6803;45.264;5.468;2022-09-23T08:05:45;4.43;;;2.87;;
13461;SDS011;6803;45.264;5.468;2022-09-23T08:08:16;7.70;;;3.33;;
13461;SDS011;6803;45.264;5.468;2022-09-23T08:10:46;4.37;;;2.97;;
13461;SDS011;6803;45.264;5.468;2022-09-23T08:13:17;5.00;;;3.17;;
13461;SDS011;6803;45.264;5.468;2022-09-23T08:15:48;6.67;;;3.27;;
13461;SDS011;6803;45.264;5.468;2022-09-23T08:18:20;5.57;;;3.37;;
13461;SDS011;6803;45.264;5.468;2022-09-23T08:20:51;6.50;;;3.33;;
13461;SDS011;6803;45.264;5.468;2022-09-23T08:23:22;5.23;;;3.10;;
13461;SDS011;6803;45.264;5.468;2022-09-23T08:25:56;4.93;;;2.70;;
13461;SDS011;6803;45.264;5.468;2022-09-23T08:28:27;8.00;;;3.33;;
13461;SDS011;6803;45.264;5.468;2022-09-23T08:31:00;7.30;;;2.83;;
13461;SDS011;6803;45.264;5.468;2022-09-23T08:33:31;7.03;;;3.27;;
13461;SDS011;6803;45.264;5.468;2022-09-23T08:36:02;5.87;;;3.60;;
13461;SDS011;6803;45.264;5.468;2022-09-23T08:38:34;6.93;;;4.50;;
13461;SDS011;6803;45.264;5.468;2022-09-23T08:41:05;15.20;;;3.80;;
13461;SDS011;6803;45.264;5.468;2022-09-23T08:43:42;6.73;;;3.10;;
13461;SDS011;6803;45.264;5.468;2022-09-23T08:46:16;4.87;;;3.00;;
13461;SDS011;6803;45.264;5.468;2022-09-23T08:48:49;5.93;;;2.63;;
13461;SDS011;6803;45.264;5.468;2022-09-23T08:51:22;6.27;;;2.87;;
13461;SDS011;6803;45.264;5.468;2022-09-23T08:53:56;6.00;;;3.20;;
13461;SDS011;6803;45.264;5.468;2022-09-23T08:56:28;6.87;;;3.10;;
13461;SDS011;6803;45.264;5.468;2022-09-23T08:59:02;4.83;;;2.87;;
13461;SDS011;6803;45.264;5.468;2022-09-23T09:01:38;7.30;;;2.83;;
13461;SDS011;6803;45.264;5.468;2022-09-23T09:04:15;6.67;;;2.73;;
13461;SDS011;6803;45.264;5.468;2022-09-23T09:06:49;9.87;;;4.40;;
13461;SDS011;6803;45.264;5.468;2022-09-23T09:09:26;5.97;;;3.30;;
13461;SDS011;6803;45.264;5.468;2022-09-23T09:12:01;7.17;;;3.70;;
13461;SDS011;6803;45.264;5.468;2022-09-23T09:14:35;6.47;;;3.40;;
13461;SDS011;6803;45.264;5.468;2022-09-23T09:17:10;4.73;;;2.97;;
13461;SDS011;6803;45.264;5.468;2022-09-23T09:19:52;6.23;;;3.00;;
13461;SDS011;6803;45.264;5.468;2022-09-23T09:22:39;7.27;;;3.30;;
13461;SDS011;6803;45.264;5.468;2022-09-23T09:25:16;11.10;;;3.40;;
13461;SDS011;6803;45.264;5.468;2022-09-23T09:27:56;6.83;;;3.07;;
13461;SDS011;6803;45.264;5.468;2022-09-23T09:30:27;17.90;;;3.37;;
13461;SDS011;6803;45.264;5.468;2022-09-23T09:33:00;13.10;;;3.67;;
13461;SDS011;6803;45.264;5.468;2022-09-23T09:35:34;12.23;;;4.23;;
13461;SDS011;6803;45.264;5.468;2022-09-23T09:38:07;12.70;;;3.50;;
13461;SDS011;6803;45.264;5.468;2022-09-23T09:40:39;8.97;;;3.50;;
13461;SDS011;6803;45.264;5.468;2022-09-23T09:43:15;14.43;;;3.13;;
13461;SDS011;6803;45.264;5.468;2022-09-23T09:45:51;8.60;;;3.23;;
13461;SDS011;6803;45.264;5.468;2022-09-23T09:48:29;8.63;;;3.00;;
13461;SDS011;6803;45.264;5.468;2022-09-23T09:51:16;14.47;;;3.10;;
13461;SDS011;6803;45.264;5.468;2022-09-23T09:53:48;8.00;;;2.67;;
13461;SDS011;6803;45.264;5.468;2022-09-23T09:56:20;7.20;;;2.70;;
13461;SDS011;6803;45.264;5.468;2022-09-23T09:58:54;11.23;;;2.87;;
13461;SDS011;6803;45.264;5.468;2022-09-23T10:01:29;8.63;;;2.83;;
13461;SDS011;6803;45.264;5.468;2022-09-23T10:04:02;15.23;;;3.80;;
13461;SDS011;6803;45.264;5.468;2022-09-23T10:06:34;13.70;;;2.47;;
13461;SDS011;6803;45.264;5.468;2022-09-23T10:09:10;9.27;;;2.30;;
13461;SDS011;6803;45.264;5.468;2022-09-23T10:11:44;3.37;;;2.20;;
13461;SDS011;6803;45.264;5.468;2022-09-23T10:14:32;6.13;;;2.30;;
13461;SDS011;6803;45.264;5.468;2022-09-23T10:17:13;5.73;;;2.10;;
13461;SDS011;6803;45.264;5.468;2022-09-23T10:19:46;4.20;;;2.07;;
13461;SDS011;6803;45.264;5.468;2022-09-23T10:22:21;6.83;;;2.27;;
13461;SDS011;6803;45.264;5.468;2022-09-23T10:24:56;4.27;;;2.00;;
13461;SDS011;6803;45.264;5.468;2022-09-23T10:27:31;4.20;;;2.23;;
13461;SDS011;6803;45.264;5.468;2022-09-23T10:30:04;4.20;;;2.30;;
13461;SDS011;6803;45.264;5.468;2022-09-23T10:32:42;5.07;;;2.50;;
13461;SDS011;6803;45.264;5.468;2022-09-23T10:35:14;2.93;;;2.00;;
13461;SDS011;6803;45.264;5.468;2022-09-23T10:37:47;5.30;;;2.33;;
13461;SDS011;6803;45.264;5.468;2022-09-23T10:40:27;2.53;;;2.00;;
13461;SDS011;6803;45.264;5.468;2022-09-23T10:43:20;5.40;;;1.97;;
13461;SDS011;6803;45.264;5.468;2022-09-23T10:46:16;5.03;;;2.20;;
13461;SDS011;6803;45.264;5.468;2022-09-23T10:52:29;4.70;;;2.10;;
13461;SDS011;6803;45.264;5.468;2022-09-23T10:55:10;3.00;;;1.90;;
13461;SDS011;6803;45.264;5.468;2022-09-23T10:57:52;3.20;;;2.07;;
13461;SDS011;6803;45.264;5.468;2022-09-23T11:00:31;7.00;;;1.93;;
13461;SDS011;6803;45.264;5.468;2022-09-23T11:03:24;3.77;;;2.10;;
13461;SDS011;6803;45.264;5.468;2022-09-23T11:06:14;4.57;;;1.90;;
13461;SDS011;6803;45.264;5.468;2022-09-23T11:08:52;5.80;;;1.97;;
13461;SDS011;6803;45.264;5.468;2022-09-23T11:11:30;4.93;;;2.07;;
13461;SDS011;6803;45.264;5.468;2022-09-23T11:14:08;3.93;;;2.00;;
13461;SDS011;6803;45.264;5.468;2022-09-23T11:16:54;3.17;;;1.77;;
13461;SDS011;6803;45.264;5.468;2022-09-23T11:22:42;6.80;;;2.13;;
13461;SDS011;6803;45.264;5.468;2022-09-23T11:25:23;4.40;;;2.07;;
13461;SDS011;6803;45.264;5.468;2022-09-23T11:28:06;4.80;;;2.07;;
13461;SDS011;6803;45.264;5.468;2022-09-23T11:30:44;2.50;;;1.90;;
13461;SDS011;6803;45.264;5.468;2022-09-23T11:33:25;3.67;;;2.27;;
13461;SDS011;6803;45.264;5.468;2022-09-23T11:36:03;2.40;;;1.93;;
13461;SDS011;6803;45.264;5.468;2022-09-23T11:38:36;6.53;;;1.90;;
13461;SDS011;6803;45.264;5.468;2022-09-23T11:41:12;4.73;;;1.80;;
13461;SDS011;6803;45.264;5.468;2022-09-23T11:43:46;5.03;;;2.00;;
13461;SDS011;6803;45.264;5.468;2022-09-23T11:46:22;7.37;;;2.80;;
13461;SDS011;6803;45.264;5.468;2022-09-23T11:49:04;5.80;;;2.00;;
13461;SDS011;6803;45.264;5.468;2022-09-23T11:51:42;3.67;;;1.90;;
13461;SDS011;6803;45.264;5.468;2022-09-23T11:54:18;2.45;;;1.50;;
13461;SDS011;6803;45.264;5.468;2022-09-23T11:56:53;9.53;;;1.95;;
13461;SDS011;6803;45.264;5.468;2022-09-23T11:59:29;3.62;;;1.70;;
13461;SDS011;6803;45.264;5.468;2022-09-23T12:02:04;5.15;;;1.60;;
13461;SDS011;6803;45.264;5.468;2022-09-23T12:04:47;5.37;;;2.00;;
13461;SDS011;6803;45.264;5.468;2022-09-23T12:07:26;4.20;;;1.90;;
13461;SDS011;6803;45.264;5.468;2022-09-23T12:10:00;2.45;;;1.52;;
13461;SDS011;6803;45.264;5.468;2022-09-23T12:12:36;5.08;;;1.77;;
13461;SDS011;6803;45.264;5.468;2022-09-23T12:15:12;6.00;;;1.87;;
13461;SDS011;6803;45.264;5.468;2022-09-23T12:17:55;2.62;;;1.70;;
13461;SDS011;6803;45.264;5.468;2022-09-23T12:23:42;6.03;;;1.45;;
13461;SDS011;6803;45.264;5.468;2022-09-23T12:26:20;6.92;;;1.90;;
13461;SDS011;6803;45.264;5.468;2022-09-23T12:28:53;1.77;;;1.37;;
13461;SDS011;6803;45.264;5.468;2022-09-23T12:31:28;2.87;;;1.70;;
13461;SDS011;6803;45.264;5.468;2022-09-23T12:34:04;3.72;;;1.67;;
13461;SDS011;6803;45.264;5.468;2022-09-23T12:36:42;4.83;;;1.47;;
13461;SDS011;6803;45.264;5.468;2022-09-23T12:39:14;4.67;;;1.70;;
13461;SDS011;6803;45.264;5.468;2022-09-23T12:41:47;5.70;;;1.42;;
13461;SDS011;6803;45.264;5.468;2022-09-23T12:44:28;3.50;;;1.60;;
13461;SDS011;6803;45.264;5.468;2022-09-23T12:56:24;3.67;;;1.82;;
13461;SDS011;6803;45.264;5.468;2022-09-23T12:59:09;3.58;;;1.37;;
13461;SDS011;6803;45.264;5.468;2022-09-23T13:01:50;6.80;;;1.80;;
13461;SDS011;6803;45.264;5.468;2022-09-23T13:04:32;3.15;;;1.40;;
13461;SDS011;6803;45.264;5.468;2022-09-23T13:07:23;3.80;;;1.90;;
13461;SDS011;6803;45.264;5.468;2022-09-23T13:10:01;5.35;;;1.77;;
13461;SDS011;6803;45.264;5.468;2022-09-23T13:12:40;3.87;;;1.60;;
13461;SDS011;6803;45.264;5.468;2022-09-23T13:15:15;3.00;;;1.45;;
13461;SDS011;6803;45.264;5.468;2022-09-23T13:17:48;3.33;;;1.45;;
13461;SDS011;6803;45.264;5.468;2022-09-23T13:20:32;4.85;;;1.22;;
13461;SDS011;6803;45.264;5.468;2022-09-23T13:23:15;1.30;;;1.20;;
13461;SDS011;6803;45.264;5.468;2022-09-23T13:25:53;1.60;;;1.40;;
13461;SDS011;6803;45.264;5.468;2022-09-23T13:28:32;3.77;;;1.45;;
13461;SDS011;6803;45.264;5.468;2022-09-23T13:31:05;3.47;;;1.90;;
13461;SDS011;6803;45.264;5.468;2022-09-23T13:36:18;6.87;;;1.30;;
13461;SDS011;6803;45.264;5.468;2022-09-23T13:38:50;3.53;;;1.80;;
13461;SDS011;6803;45.264;5.468;2022-09-23T13:41:21;4.90;;;1.60;;
13461;SDS011;6803;45.264;5.468;2022-09-23T13:43:55;2.95;;;1.57;;
13461;SDS011;6803;45.264;5.468;2022-09-23T13:46:28;5.43;;;1.33;;
13461;SDS011;6803;45.264;5.468;2022-09-23T13:49:00;4.30;;;1.50;;
13461;SDS011;6803;45.264;5.468;2022-09-23T13:51:33;3.13;;;1.40;;
13461;SDS011;6803;45.264;5.468;2022-09-23T13:54:05;5.57;;;1.43;;
13461;SDS011;6803;45.264;5.468;2022-09-23T13:56:44;3.47;;;1.50;;
13461;SDS011;6803;45.264;5.468;2022-09-23T13:59:21;3.63;;;1.40;;
13461;SDS011;6803;45.264;5.468;2022-09-23T14:02:03;4.80;;;1.53;;
13461;SDS011;6803;45.264;5.468;2022-09-23T14:07:13;5.13;;;1.50;;
13461;SDS011;6803;45.264;5.468;2022-09-23T14:09:46;3.67;;;1.70;;
13461;SDS011;6803;45.264;5.468;2022-09-23T14:12:19;4.27;;;1.40;;
13461;SDS011;6803;45.264;5.468;2022-09-23T14:14:50;3.53;;;1.30;;
13461;SDS011;6803;45.264;5.468;2022-09-23T14:19:59;3.10;;;1.63;;
13461;SDS011;6803;45.264;5.468;2022-09-23T14:22:30;3.27;;;1.70;;
13461;SDS011;6803;45.264;5.468;2022-09-23T14:25:01;3.37;;;1.43;;
13461;SDS011;6803;45.264;5.468;2022-09-23T14:27:33;4.43;;;1.97;;
13461;SDS011;6803;45.264;5.468;2022-09-23T14:30:08;2.20;;;1.47;;
13461;SDS011;6803;45.264;5.468;2022-09-23T14:32:42;4.47;;;1.80;;
13461;SDS011;6803;45.264;5.468;2022-09-23T14:35:17;5.33;;;1.93;;
13461;SDS011;6803;45.264;5.468;2022-09-23T14:37:50;3.10;;;1.60;;
13461;SDS011;6803;45.264;5.468;2022-09-23T14:40:49;5.97;;;1.90;;
13461;SDS011;6803;45.264;5.468;2022-09-23T14:46:00;2.93;;;1.43;;
13461;SDS011;6803;45.264;5.468;2022-09-23T14:48:31;11.83;;;1.70;;
13461;SDS011;6803;45.264;5.468;2022-09-23T14:51:05;3.73;;;1.70;;
13461;SDS011;6803;45.264;5.468;2022-09-23T14:53:38;2.87;;;2.20;;
13461;SDS011;6803;45.264;5.468;2022-09-23T14:56:13;4.37;;;1.47;;
13461;SDS011;6803;45.264;5.468;2022-09-23T14:58:50;8.00;;;1.70;;
13461;SDS011;6803;45.264;5.468;2022-09-23T15:01:26;2.87;;;1.73;;
13461;SDS011;6803;45.264;5.468;2022-09-23T15:04:11;6.17;;;2.27;;
13461;SDS011;6803;45.264;5.468;2022-09-23T15:06:47;4.77;;;1.53;;
13461;SDS011;6803;45.264;5.468;2022-09-23T15:09:20;4.73;;;2.00;;
13461;SDS011;6803;45.264;5.468;2022-09-23T15:11:56;3.10;;;1.90;;
13461;SDS011;6803;45.264;5.468;2022-09-23T15:14:29;2.23;;;1.40;;
13461;SDS011;6803;45.264;5.468;2022-09-23T15:17:06;3.57;;;1.97;;
13461;SDS011;6803;45.264;5.468;2022-09-23T15:19:44;4.67;;;1.97;;
13461;SDS011;6803;45.264;5.468;2022-09-23T15:22:18;6.70;;;2.07;;
13461;SDS011;6803;45.264;5.468;2022-09-23T15:24:49;4.07;;;2.10;;
13461;SDS011;6803;45.264;5.468;2022-09-23T15:27:28;7.20;;;2.10;;
13461;SDS011;6803;45.264;5.468;2022-09-23T15:30:01;4.20;;;1.70;;
13461;SDS011;6803;45.264;5.468;2022-09-23T15:32:43;3.50;;;2.23;;
13461;SDS011;6803;45.264;5.468;2022-09-23T15:35:15;5.17;;;2.00;;
13461;SDS011;6803;45.264;5.468;2022-09-23T15:37:48;7.57;;;2.00;;
13461;SDS011;6803;45.264;5.468;2022-09-23T15:40:21;2.17;;;1.40;;
13461;SDS011;6803;45.264;5.468;2022-09-23T15:42:54;6.20;;;2.27;;
13461;SDS011;6803;45.264;5.468;2022-09-23T15:45:28;4.40;;;2.00;;
13461;SDS011;6803;45.264;5.468;2022-09-23T15:48:03;5.20;;;1.73;;
13461;SDS011;6803;45.264;5.468;2022-09-23T15:50:42;3.60;;;1.47;;
13461;SDS011;6803;45.264;5.468;2022-09-23T15:53:14;8.47;;;1.90;;
13461;SDS011;6803;45.264;5.468;2022-09-23T15:55:48;7.27;;;2.30;;
13461;SDS011;6803;45.264;5.468;2022-09-23T15:58:20;3.00;;;1.93;;
13461;SDS011;6803;45.264;5.468;2022-09-23T16:00:53;4.17;;;1.90;;
13461;SDS011;6803;45.264;5.468;2022-09-23T16:03:24;3.50;;;2.20;;
13461;SDS011;6803;45.264;5.468;2022-09-23T16:05:57;4.07;;;2.20;;
13461;SDS011;6803;45.264;5.468;2022-09-23T16:08:30;6.07;;;2.20;;
13461;SDS011;6803;45.264;5.468;2022-09-23T16:11:01;6.43;;;1.80;;
13461;SDS011;6803;45.264;5.468;2022-09-23T16:13:33;3.97;;;1.97;;
13461;SDS011;6803;45.264;5.468;2022-09-23T16:16:05;5.97;;;1.87;;
13461;SDS011;6803;45.264;5.468;2022-09-23T16:18:37;5.93;;;2.23;;
13461;SDS011;6803;45.264;5.468;2022-09-23T16:21:11;4.67;;;1.90;;
13461;SDS011;6803;45.264;5.468;2022-09-23T16:23:45;5.80;;;2.10;;